createdAt,value
2023-05-14T00:00:16.940Z,69.50
2023-05-14T00:02:38.483Z,68.90
2023-05-14T00:05:00.023Z,69.00
2023-05-14T00:07:21.475Z,69.15
2023-05-14T00:09:42.971Z,69.36
2023-05-14T00:12:04.910Z,70.31
2023-05-14T00:14:26.500Z,69.49
2023-05-14T00:16:47.975Z,69.82
2023-05-14T00:19:09.451Z,69.91
2023-05-14T00:21:31.828Z,69.61
2023-05-14T00:23:53.323Z,70.24
2023-05-14T00:26:14.722Z,69.83
2023-05-14T00:28:36.148Z,69.56
2023-05-14T00:30:57.632Z,69.46
2023-05-14T00:33:19.144Z,69.29
2023-05-14T00:35:40.559Z,69.44
2023-05-14T00:38:03.510Z,69.66
2023-05-14T00:40:28.285Z,69.76
2023-05-14T00:42:49.726Z,70.44
2023-05-14T00:45:11.363Z,72.28
2023-05-14T00:47:34.857Z,73.14
2023-05-14T00:49:56.353Z,73.11
2023-05-14T00:52:18.112Z,73.33
2023-05-14T00:54:39.606Z,74.91
2023-05-14T00:57:01.253Z,73.40
2023-05-14T00:59:22.740Z,72.83
2023-05-14T01:01:44.374Z,73.79
2023-05-14T01:04:07.693Z,73.61
2023-05-14T01:06:35.815Z,76.19
2023-05-14T01:09:17.280Z,77.21
2023-05-14T01:11:59.818Z,76.79
2023-05-14T01:14:26.357Z,78.66
2023-05-14T01:16:51.076Z,78.91
2023-05-14T01:19:46.582Z,78.65
2023-05-14T01:22:08.481Z,77.28
2023-05-14T01:24:29.999Z,76.83
2023-05-14T01:26:51.514Z,76.25
2023-05-14T01:29:19.538Z,75.78
2023-05-14T01:31:44.275Z,75.26
2023-05-14T01:34:07.891Z,74.86
2023-05-14T01:36:29.950Z,76.41
2023-05-14T01:38:51.932Z,80.05
2023-05-14T01:41:14.460Z,80.35
2023-05-14T01:43:37.307Z,80.51
2023-05-14T01:45:58.927Z,78.66
2023-05-14T01:48:20.662Z,78.05
2023-05-14T01:50:42.137Z,76.99
2023-05-14T01:53:03.724Z,76.65
2023-05-14T01:55:25.733Z,76.38
2023-05-14T01:57:47.176Z,75.98
2023-05-14T02:00:09.378Z,75.75
2023-05-14T02:02:31.143Z,76.11
2023-05-14T02:04:52.619Z,75.67
2023-05-14T02:07:14.087Z,75.49
2023-05-14T02:09:36.201Z,80.18
2023-05-14T02:11:57.777Z,79.55
2023-05-14T02:14:19.217Z,78.61
2023-05-14T02:16:41.087Z,77.64
2023-05-14T02:19:02.579Z,77.08
2023-05-14T02:21:24.249Z,76.56
2023-05-14T02:23:45.703Z,76.18
2023-05-14T02:26:08.538Z,75.68
2023-05-14T02:28:29.993Z,75.44
2023-05-14T02:30:51.496Z,75.18
2023-05-14T02:33:13.088Z,75.02
2023-05-14T02:35:34.609Z,75.57
2023-05-14T02:37:56.262Z,75.27
2023-05-14T02:40:17.845Z,75.66
2023-05-14T02:42:39.430Z,78.08
2023-05-14T02:45:00.986Z,77.09
2023-05-14T02:47:22.500Z,76.34
2023-05-14T02:49:43.957Z,75.62
2023-05-14T02:52:05.521Z,75.18
2023-05-14T02:54:27.114Z,74.93
2023-05-14T02:56:48.614Z,74.52
2023-05-14T02:59:10.153Z,74.78
2023-05-14T03:01:32.100Z,74.02
2023-05-14T03:03:53.866Z,73.82
2023-05-14T03:06:15.326Z,73.57
2023-05-14T03:08:36.755Z,73.74
2023-05-14T03:10:58.183Z,73.67
2023-05-14T03:13:20.795Z,74.36
2023-05-14T03:15:42.258Z,75.17
2023-05-14T03:18:03.780Z,75.07
2023-05-14T03:20:26.904Z,76.37
2023-05-14T03:22:48.398Z,75.91
2023-05-14T03:25:10.029Z,75.35
2023-05-14T03:27:31.512Z,74.92
2023-05-14T03:29:52.946Z,74.94
2023-05-14T03:32:14.999Z,74.74
2023-05-14T03:34:36.917Z,74.58
2023-05-14T03:36:58.368Z,74.48
2023-05-14T03:39:19.846Z,74.42
2023-05-14T03:41:41.589Z,74.56
2023-05-14T03:44:03.081Z,74.91
2023-05-14T03:46:24.537Z,74.70
2023-05-14T03:48:46.031Z,74.35
2023-05-14T03:51:07.578Z,75.41
2023-05-14T03:53:29.133Z,74.80
2023-05-14T03:55:50.793Z,74.55
2023-05-14T03:58:14.357Z,74.31
2023-05-14T04:00:36.543Z,74.20
2023-05-14T04:02:58.074Z,74.16
2023-05-14T04:05:19.711Z,74.82
2023-05-14T04:07:41.159Z,74.66
2023-05-14T04:10:04.734Z,74.69
2023-05-14T04:12:26.793Z,75.75
2023-05-14T04:14:48.251Z,74.89
2023-05-14T04:17:09.736Z,74.38
2023-05-14T04:19:31.396Z,75.11
2023-05-14T04:21:52.833Z,74.64
2023-05-14T04:24:14.278Z,74.38
2023-05-14T04:26:35.696Z,74.38
2023-05-14T04:28:57.183Z,73.93
2023-05-14T04:31:18.682Z,73.68
2023-05-14T04:33:40.266Z,74.63
2023-05-14T04:36:02.058Z,73.86
2023-05-14T04:38:23.650Z,74.93
2023-05-14T04:40:45.057Z,74.42
2023-05-14T04:43:06.707Z,73.92
2023-05-14T04:45:28.219Z,73.66
2023-05-14T04:47:49.699Z,73.33
2023-05-14T04:50:11.178Z,73.95
2023-05-14T04:52:33.110Z,74.94
2023-05-14T04:54:54.786Z,75.00
2023-05-14T04:57:16.546Z,75.25
2023-05-14T04:59:38.045Z,74.43
2023-05-14T05:01:59.516Z,74.32
2023-05-14T05:04:21.066Z,74.10
2023-05-14T05:06:42.510Z,73.81
2023-05-14T05:09:04.559Z,73.85
2023-05-14T05:11:26.044Z,73.68
2023-05-14T05:13:47.452Z,73.97
2023-05-14T05:16:08.926Z,73.96
2023-05-14T05:18:30.420Z,74.24
2023-05-14T05:20:51.921Z,74.11
2023-05-14T05:23:13.410Z,74.59
2023-05-14T05:25:34.861Z,74.47
2023-05-14T05:27:56.576Z,74.09
2023-05-14T05:30:18.587Z,74.46
2023-05-14T05:32:40.470Z,74.30
2023-05-14T05:35:02.067Z,74.11
2023-05-14T05:37:23.556Z,74.33
2023-05-14T05:39:45.686Z,74.34
2023-05-14T05:42:07.549Z,74.36
2023-05-14T05:44:29.030Z,74.48
2023-05-14T05:46:51.112Z,74.49
2023-05-14T05:49:12.715Z,74.72
2023-05-14T05:51:34.150Z,75.07
2023-05-14T05:53:55.944Z,75.08
2023-05-14T05:56:17.387Z,75.35
2023-05-14T05:58:38.917Z,75.47
2023-05-14T06:01:00.444Z,75.58
2023-05-14T06:03:22.285Z,75.14
2023-05-14T06:05:43.960Z,75.21
2023-05-14T06:08:05.805Z,74.50
2023-05-14T06:10:27.330Z,74.15
2023-05-14T06:12:48.765Z,73.85
2023-05-14T06:15:11.357Z,73.93
2023-05-14T06:17:32.964Z,73.36
2023-05-14T06:19:54.531Z,73.31
2023-05-14T06:22:16.230Z,73.55
2023-05-14T06:24:37.648Z,73.51
2023-05-14T06:26:59.085Z,73.96
2023-05-14T06:29:20.636Z,74.06
2023-05-14T06:31:42.119Z,74.06
2023-05-14T06:34:03.676Z,75.14
2023-05-14T06:36:25.161Z,74.38
2023-05-14T06:38:46.638Z,76.50
2023-05-14T06:41:08.124Z,75.24
2023-05-14T06:43:29.585Z,75.46
2023-05-14T06:45:52.209Z,75.80
2023-05-14T06:48:13.737Z,75.38
2023-05-14T06:50:35.328Z,75.91
2023-05-14T06:52:56.788Z,78.92
2023-05-14T06:55:18.295Z,77.58
2023-05-14T06:57:40.761Z,77.09
2023-05-14T07:00:03.646Z,78.95
2023-05-14T07:02:25.497Z,78.53
2023-05-14T07:04:47.037Z,78.52
2023-05-14T07:07:10.550Z,79.91
2023-05-14T07:09:32.052Z,80.38
2023-05-14T07:11:53.473Z,77.52
2023-05-14T07:14:14.945Z,75.94
2023-05-14T07:16:36.846Z,76.01
2023-05-14T07:18:58.422Z,75.92
2023-05-14T07:21:19.909Z,75.40
2023-05-14T07:23:41.362Z,77.16
2023-05-14T07:26:03.705Z,74.47
2023-05-14T07:28:25.143Z,73.92
2023-05-14T07:30:46.634Z,73.28
2023-05-14T07:33:08.132Z,71.21
2023-05-14T07:35:29.623Z,71.17
2023-05-14T07:37:51.216Z,71.13
2023-05-14T07:40:12.734Z,71.61
2023-05-14T07:42:36.971Z,69.06
2023-05-14T07:44:58.983Z,68.67
2023-05-14T07:47:20.493Z,68.27
2023-05-14T07:49:42.032Z,65.06
2023-05-14T07:52:03.685Z,62.64
2023-05-14T07:54:25.280Z,61.51
2023-05-14T07:56:46.778Z,64.37
2023-05-14T07:59:08.348Z,62.19
2023-05-14T08:01:31.253Z,62.02
2023-05-14T08:03:52.838Z,63.01
2023-05-14T08:06:14.582Z,58.75
2023-05-14T08:08:36.315Z,57.09
2023-05-14T08:10:58.001Z,53.78
2023-05-14T08:13:19.511Z,52.81
2023-05-14T08:15:41.534Z,52.73
2023-05-14T08:18:03.812Z,50.75
2023-05-14T08:20:25.528Z,49.29
2023-05-14T08:22:47.302Z,49.50
2023-05-14T08:25:08.939Z,49.67
2023-05-14T08:27:30.367Z,48.85
2023-05-14T08:29:52.108Z,50.03
2023-05-14T08:32:22.734Z,48.61
2023-05-14T08:34:45.494Z,48.44
2023-05-14T08:37:06.975Z,47.48
2023-05-14T08:39:28.601Z,47.09
2023-05-14T08:41:50.188Z,47.04
2023-05-14T08:44:19.232Z,46.59
2023-05-14T08:46:41.731Z,46.70
2023-05-14T08:49:19.759Z,46.75
2023-05-14T08:51:41.752Z,45.87
2023-05-14T08:54:03.568Z,43.61
2023-05-14T08:56:26.373Z,42.96
2023-05-14T08:58:47.808Z,43.67
2023-05-14T09:01:09.595Z,42.85
2023-05-14T09:03:31.411Z,41.73
2023-05-14T09:05:53.918Z,39.38
2023-05-14T09:08:15.391Z,40.86
2023-05-14T09:10:39.884Z,40.70
2023-05-14T09:13:01.380Z,41.37
2023-05-14T09:15:25.004Z,41.03
2023-05-14T09:17:48.022Z,41.04
2023-05-14T09:20:12.341Z,41.71
2023-05-14T09:22:34.879Z,42.29
2023-05-14T09:25:09.402Z,40.64
2023-05-14T09:27:32.878Z,42.08
2023-05-14T09:29:54.294Z,41.70
2023-05-14T09:32:15.840Z,41.39
2023-05-14T09:34:39.947Z,41.61
2023-05-14T09:37:03.553Z,41.33
2023-05-14T09:39:26.446Z,40.48
2023-05-14T09:41:47.953Z,41.26
2023-05-14T09:44:09.445Z,41.24
2023-05-14T09:46:31.943Z,40.48
2023-05-14T09:48:53.391Z,41.23
2023-05-14T09:51:14.975Z,40.24
2023-05-14T09:53:37.007Z,41.29
2023-05-14T09:55:58.530Z,41.79
2023-05-14T09:58:19.972Z,42.96
2023-05-14T10:00:45.589Z,42.52
2023-05-14T10:03:08.196Z,41.79
2023-05-14T10:05:29.946Z,42.23
2023-05-14T10:07:54.178Z,42.38
2023-05-14T10:10:19.606Z,41.98
2023-05-14T10:12:41.802Z,41.75
2023-05-14T10:15:11.147Z,42.72
2023-05-14T10:17:35.832Z,42.42
2023-05-14T10:19:59.941Z,42.11
2023-05-14T10:22:31.137Z,42.11
2023-05-14T10:24:53.653Z,42.19
2023-05-14T10:27:17.133Z,43.71
2023-05-14T10:29:38.585Z,42.28
2023-05-14T10:32:05.304Z,42.72
2023-05-14T10:34:33.421Z,41.61
2023-05-14T10:36:54.917Z,42.82
2023-05-14T10:39:16.531Z,41.52
2023-05-14T10:41:38.710Z,41.58
2023-05-14T10:44:09.404Z,41.76
2023-05-14T10:46:31.539Z,42.25
2023-05-14T10:48:53.360Z,41.79
2023-05-14T10:51:17.462Z,42.16
2023-05-14T10:53:41.762Z,40.80
2023-05-14T10:56:07.812Z,40.19
2023-05-14T10:58:32.216Z,39.91
2023-05-14T11:00:55.667Z,39.97
2023-05-14T11:03:18.311Z,39.58
2023-05-14T11:05:41.238Z,40.58
2023-05-14T11:08:05.930Z,40.03
2023-05-14T11:10:29.989Z,38.45
2023-05-14T11:12:52.562Z,38.58
2023-05-14T11:15:22.063Z,38.46
2023-05-14T11:17:44.878Z,36.19
2023-05-14T11:20:07.243Z,36.36
2023-05-14T11:22:29.041Z,35.37
2023-05-14T11:24:51.111Z,35.30
2023-05-14T11:27:12.906Z,33.51
2023-05-14T11:29:35.366Z,32.90
2023-05-14T11:31:56.844Z,34.46
2023-05-14T11:34:18.318Z,33.81
2023-05-14T11:36:39.775Z,34.71
2023-05-14T11:39:01.322Z,35.35
2023-05-14T11:41:23.211Z,36.69
2023-05-14T11:43:45.011Z,36.84
2023-05-14T11:46:06.985Z,37.28
2023-05-14T11:48:28.435Z,36.47
2023-05-14T11:50:53.174Z,37.56
2023-05-14T11:53:25.324Z,37.69
2023-05-14T11:55:47.503Z,38.29
2023-05-14T11:58:09.143Z,39.34
2023-05-14T12:00:31.375Z,40.77
2023-05-14T12:02:52.996Z,42.27
2023-05-14T12:05:14.525Z,42.61
2023-05-14T12:07:36.093Z,43.33
2023-05-14T12:10:01.253Z,44.42
2023-05-14T12:12:23.206Z,45.29
2023-05-14T12:14:45.506Z,45.59
2023-05-14T12:17:12.438Z,46.30
2023-05-14T12:19:40.119Z,46.58
2023-05-14T12:22:01.593Z,47.86
2023-05-14T12:24:25.613Z,48.84
2023-05-14T12:26:48.179Z,48.32
2023-05-14T12:29:13.433Z,47.65
2023-05-14T12:31:36.451Z,48.33
2023-05-14T12:33:58.202Z,47.12
2023-05-14T12:36:21.669Z,42.76
2023-05-14T12:38:43.892Z,40.04
2023-05-14T12:41:05.620Z,39.31
2023-05-14T12:43:31.501Z,34.72
2023-05-14T12:45:52.971Z,33.32
2023-05-14T12:48:14.588Z,35.75
2023-05-14T12:50:36.227Z,35.65
2023-05-14T12:52:57.868Z,37.75
2023-05-14T12:55:19.438Z,37.23
2023-05-14T12:57:41.336Z,36.19
2023-05-14T13:00:07.015Z,35.38
2023-05-14T13:02:28.651Z,37.45
2023-05-14T13:04:50.097Z,38.33
2023-05-14T13:07:11.923Z,39.90
2023-05-14T13:09:33.368Z,40.38
2023-05-14T13:11:54.784Z,41.16
2023-05-14T13:14:16.999Z,42.44
2023-05-14T13:16:39.286Z,44.32
2023-05-14T13:19:00.883Z,45.64
2023-05-14T13:21:22.499Z,45.88
2023-05-14T13:23:43.970Z,47.20
2023-05-14T13:26:05.680Z,48.56
2023-05-14T13:28:27.155Z,48.02
2023-05-14T13:31:07.483Z,48.73
2023-05-14T13:33:28.983Z,47.04
2023-05-14T13:35:50.440Z,47.48
2023-05-14T13:38:11.919Z,46.33
2023-05-14T13:40:33.418Z,44.95
2023-05-14T13:42:54.897Z,45.63
2023-05-14T13:45:16.399Z,45.86
2023-05-14T13:47:38.292Z,43.42
2023-05-14T13:50:00.897Z,43.53
2023-05-14T13:52:22.661Z,45.20
2023-05-14T13:54:44.135Z,46.14
2023-05-14T13:57:05.633Z,46.62
2023-05-14T13:59:27.854Z,43.97
2023-05-14T14:01:50.120Z,40.75
2023-05-14T14:04:11.724Z,40.17
2023-05-14T14:06:33.365Z,41.20
2023-05-14T14:08:54.830Z,41.23
2023-05-14T14:11:16.952Z,42.69
2023-05-14T14:13:38.538Z,43.53
2023-05-14T14:16:00.074Z,46.36
2023-05-14T14:18:21.621Z,46.59
2023-05-14T14:20:43.079Z,48.16
2023-05-14T14:23:04.530Z,48.73
2023-05-14T14:25:26.019Z,48.82
2023-05-14T14:27:48.085Z,44.88
2023-05-14T14:30:15.646Z,39.28
2023-05-14T14:32:37.308Z,37.19
2023-05-14T14:34:58.793Z,33.27
2023-05-14T14:37:21.282Z,31.95
2023-05-14T14:39:44.488Z,29.05
2023-05-14T14:42:06.844Z,27.14
2023-05-14T14:44:28.263Z,27.47
2023-05-14T14:46:49.720Z,26.85
2023-05-14T14:49:11.144Z,24.78
2023-05-14T14:51:33.093Z,23.48
2023-05-14T14:53:54.608Z,25.25
2023-05-14T14:56:16.106Z,25.84
2023-05-14T14:58:38.381Z,26.11
2023-05-14T15:01:01.189Z,26.08
2023-05-14T15:03:24.566Z,25.09
2023-05-14T15:05:46.142Z,26.71
2023-05-14T15:08:07.625Z,26.45
2023-05-14T15:10:29.471Z,27.13
2023-05-14T15:12:51.079Z,29.65
2023-05-14T15:15:12.534Z,32.11
2023-05-14T15:17:34.030Z,32.44
2023-05-14T15:19:55.601Z,33.29
2023-05-14T15:22:17.151Z,34.33
2023-05-14T15:24:38.602Z,34.52
2023-05-14T15:27:00.151Z,33.99
2023-05-14T15:29:21.625Z,29.18
2023-05-14T15:31:45.060Z,28.84
2023-05-14T15:34:06.555Z,27.00
2023-05-14T15:36:28.644Z,25.93
2023-05-14T15:38:50.093Z,25.57
2023-05-14T15:41:11.514Z,24.42
2023-05-14T15:43:32.944Z,23.41
2023-05-14T15:45:54.385Z,23.86
2023-05-14T15:48:16.069Z,25.64
2023-05-14T15:50:38.450Z,27.65
2023-05-14T15:55:36.067Z,30.30
2023-05-14T15:57:57.520Z,31.51
2023-05-14T16:00:19.564Z,32.74
2023-05-14T16:02:41.333Z,34.12
2023-05-14T16:05:03.072Z,35.20
2023-05-14T16:07:24.577Z,36.05
2023-05-14T16:09:46.040Z,36.44
2023-05-14T16:12:09.087Z,36.28
2023-05-14T16:14:30.592Z,37.17
2023-05-14T16:16:53.377Z,37.87
2023-05-14T16:19:15.376Z,37.83
2023-05-14T16:21:36.899Z,38.52
2023-05-14T16:23:58.377Z,38.06
2023-05-14T16:26:19.854Z,39.58
2023-05-14T16:28:42.705Z,39.74
2023-05-14T16:31:04.198Z,41.65
2023-05-14T16:33:25.694Z,43.86
2023-05-14T16:35:47.174Z,44.49
2023-05-14T16:38:08.617Z,45.33
2023-05-14T16:40:30.280Z,45.39
2023-05-14T16:42:52.002Z,46.27
2023-05-14T16:45:13.777Z,47.97
2023-05-14T16:47:35.809Z,47.96
2023-05-14T16:49:57.287Z,47.00
2023-05-14T16:52:18.721Z,45.71
2023-05-14T16:54:41.251Z,43.01
2023-05-14T16:57:02.686Z,41.71
2023-05-14T16:59:25.177Z,41.23
2023-05-14T17:01:48.071Z,39.27
2023-05-14T17:04:10.148Z,39.39
2023-05-14T17:06:31.927Z,41.87
2023-05-14T17:08:53.395Z,44.57
2023-05-14T17:11:14.869Z,45.09
2023-05-14T17:13:36.375Z,45.13
2023-05-14T17:15:57.815Z,45.61
2023-05-14T17:18:19.340Z,46.47
2023-05-14T17:20:40.875Z,48.59
2023-05-14T17:23:02.394Z,50.32
2023-05-14T17:25:26.299Z,53.36
2023-05-14T17:27:47.885Z,54.80
2023-05-14T17:30:09.781Z,55.92
2023-05-14T17:32:31.524Z,57.16
2023-05-14T17:34:53.109Z,59.28
2023-05-14T17:37:14.571Z,57.81
2023-05-14T17:39:36.003Z,57.56
2023-05-14T17:41:57.448Z,58.41
2023-05-14T17:44:18.861Z,58.67
2023-05-14T17:46:41.831Z,59.25
2023-05-14T17:49:03.323Z,59.61
2023-05-14T17:51:25.216Z,62.39
2023-05-14T17:53:46.702Z,62.48
2023-05-14T17:56:08.197Z,63.71
2023-05-14T17:58:29.857Z,65.31
2023-05-14T18:00:51.438Z,65.73
2023-05-14T18:03:14.275Z,66.27
2023-05-14T18:05:36.219Z,65.96
2023-05-14T18:07:58.474Z,65.72
2023-05-14T18:10:19.935Z,65.61
2023-05-14T18:12:41.744Z,67.19
2023-05-14T18:15:03.376Z,67.11
2023-05-14T18:17:24.961Z,65.07
2023-05-14T18:19:46.409Z,64.64
2023-05-14T18:22:07.858Z,64.54
2023-05-14T18:24:29.259Z,63.23
2023-05-14T18:26:50.912Z,63.93
2023-05-14T18:29:12.557Z,64.41
2023-05-14T18:31:34.036Z,64.69
2023-05-14T18:33:55.732Z,63.84
2023-05-14T18:36:17.991Z,63.87
2023-05-14T18:38:40.789Z,63.38
2023-05-14T18:41:02.450Z,63.27
2023-05-14T18:43:23.912Z,63.47
2023-05-14T18:45:47.116Z,65.50
2023-05-14T18:48:09.325Z,64.43
2023-05-14T18:50:30.951Z,64.19
2023-05-14T18:52:52.380Z,63.94
2023-05-14T18:55:13.864Z,63.91
2023-05-14T18:57:36.854Z,64.87
2023-05-14T19:00:01.270Z,66.55
2023-05-14T19:02:22.795Z,67.38
2023-05-14T19:04:52.208Z,67.45
2023-05-14T19:07:15.135Z,67.36
2023-05-14T19:09:36.860Z,68.71
2023-05-14T19:11:58.383Z,69.41
2023-05-14T19:14:19.818Z,69.40
2023-05-14T19:16:41.342Z,68.95
2023-05-14T19:19:02.887Z,69.23
2023-05-14T19:21:24.352Z,69.43
2023-05-14T19:23:45.814Z,67.76
2023-05-14T19:26:07.502Z,69.56
2023-05-14T19:28:29.010Z,68.77
2023-05-14T19:30:53.427Z,70.82
2023-05-14T19:33:14.944Z,69.60
2023-05-14T19:35:36.389Z,68.64
2023-05-14T19:37:57.821Z,68.41
2023-05-14T19:40:19.302Z,68.27
2023-05-14T19:42:40.737Z,69.08
2023-05-14T19:45:02.484Z,67.98
2023-05-14T19:47:23.971Z,67.44
2023-05-14T19:49:45.431Z,66.75
2023-05-14T19:52:06.885Z,69.07
2023-05-14T19:54:28.328Z,71.61
2023-05-14T19:56:49.764Z,73.20
2023-05-14T19:59:11.276Z,73.58
2023-05-14T20:01:34.325Z,73.40
2023-05-14T20:03:55.935Z,73.19
2023-05-14T20:06:17.493Z,71.64
2023-05-14T20:08:40.122Z,71.05
2023-05-14T20:11:01.640Z,70.45
2023-05-14T20:13:25.063Z,69.86
2023-05-14T20:15:46.755Z,69.53
2023-05-14T20:18:08.612Z,69.00
2023-05-14T20:20:32.879Z,68.72
2023-05-14T20:22:54.982Z,68.53
2023-05-14T20:25:16.445Z,69.42
2023-05-14T20:27:38.124Z,71.73
2023-05-14T20:29:59.548Z,72.33
2023-05-14T20:32:24.888Z,71.11
2023-05-14T20:34:46.537Z,70.52
2023-05-14T20:37:08.653Z,70.00
2023-05-14T20:39:30.192Z,69.59
2023-05-14T20:41:51.683Z,69.45
2023-05-14T20:44:13.167Z,69.19
2023-05-14T20:46:34.629Z,69.13
2023-05-14T20:48:57.061Z,71.26
2023-05-14T20:51:18.489Z,71.19
2023-05-14T20:53:40.127Z,70.23
2023-05-14T20:56:01.705Z,70.77
2023-05-14T20:58:23.264Z,70.80
2023-05-14T21:00:44.671Z,70.28
2023-05-14T21:03:06.305Z,70.25
2023-05-14T21:05:28.092Z,69.80
2023-05-14T21:07:49.600Z,69.59
2023-05-14T21:10:11.280Z,71.26
2023-05-14T21:12:32.748Z,71.28
2023-05-14T21:14:54.164Z,70.69
2023-05-14T21:17:15.661Z,70.51
2023-05-14T21:19:37.252Z,70.34
2023-05-14T21:21:58.696Z,69.88
2023-05-14T21:24:20.196Z,70.03
2023-05-14T21:26:41.742Z,69.91
2023-05-14T21:29:04.085Z,69.78
2023-05-14T21:31:25.678Z,69.83
2023-05-14T21:33:47.796Z,71.83
2023-05-14T21:36:09.907Z,71.37
2023-05-14T21:38:32.562Z,71.17
2023-05-14T21:40:54.002Z,71.02
2023-05-14T21:43:15.572Z,70.84
2023-05-14T21:45:37.234Z,70.36
2023-05-14T21:47:58.817Z,71.65
2023-05-14T21:50:20.502Z,70.93
2023-05-14T21:52:42.087Z,70.72
2023-05-14T21:55:03.847Z,70.63
2023-05-14T21:57:28.046Z,70.40
2023-05-14T21:59:50.106Z,70.22
2023-05-14T22:02:11.619Z,69.93
2023-05-14T22:04:33.170Z,69.83
2023-05-14T22:06:54.664Z,70.17
2023-05-14T22:09:16.276Z,70.40
2023-05-14T22:11:37.771Z,70.14
2023-05-14T22:13:59.192Z,70.13
2023-05-14T22:16:22.362Z,69.63
2023-05-14T22:18:44.153Z,69.64
2023-05-14T22:21:06.161Z,69.83
2023-05-14T22:23:27.623Z,69.59
2023-05-14T22:25:49.058Z,70.67
2023-05-14T22:28:10.619Z,72.25
2023-05-14T22:30:32.112Z,71.16
2023-05-14T22:32:53.606Z,70.82
2023-05-14T22:35:15.378Z,70.37
2023-05-14T22:37:37.100Z,70.30
2023-05-14T22:39:59.174Z,70.20
2023-05-14T22:42:20.639Z,71.28
2023-05-14T22:44:42.090Z,70.41
2023-05-14T22:47:05.218Z,70.54
2023-05-14T22:49:26.696Z,71.81
2023-05-14T22:51:48.188Z,74.83
2023-05-14T22:54:10.624Z,73.41
2023-05-14T22:56:32.216Z,72.90
2023-05-14T22:58:53.695Z,72.23
2023-05-14T23:01:15.247Z,72.81
2023-05-14T23:03:36.748Z,72.53
2023-05-14T23:05:58.191Z,72.32
2023-05-14T23:08:19.675Z,73.48
2023-05-14T23:10:41.138Z,74.74
2023-05-14T23:13:03.804Z,73.54
2023-05-14T23:15:25.527Z,76.39
2023-05-14T23:17:47.365Z,75.80
2023-05-14T23:20:12.631Z,74.83
2023-05-14T23:22:34.080Z,74.15
2023-05-14T23:24:55.515Z,73.77
2023-05-14T23:27:17.138Z,73.42
2023-05-14T23:29:38.608Z,72.97
2023-05-14T23:32:00.100Z,73.50
2023-05-14T23:34:22.209Z,73.31
2023-05-14T23:36:44.806Z,72.65
2023-05-14T23:39:06.504Z,72.81
2023-05-14T23:41:27.983Z,72.93
2023-05-14T23:43:49.435Z,73.42
2023-05-14T23:46:11.260Z,75.26
2023-05-14T23:48:32.788Z,76.02
2023-05-14T23:50:54.275Z,74.82
2023-05-14T23:53:15.719Z,74.39
2023-05-14T23:55:37.309Z,74.17
2023-05-14T23:57:58.774Z,76.24
